Time;durP1;ratioP1;P1;durP2;ratioP2;P2;SDS_P1;SDS_P2;PMS_P1;PMS_P2;Temp;Humidity;BMP_temperature;BMP_pressure;BME280_temperature;BME280_humidity;BME280_pressure;Samples;Min_cycle;Max_cycle;Signal;HPM_P1;HPM_P2
2023/08/30 00:00:27;;;;;;;20.33;18.42;;;;;;;;;;5000472;28;20049;-78
2023/08/30 00:02:54;;;;;;;19.20;17.23;;;;;;;;;;5015699;28;20056;-76
2023/08/30 00:05:20;;;;;;;19.23;17.35;;;;;;;;;;5018078;28;20132;-78
2023/08/30 00:07:46;;;;;;;18.88;16.77;;;;;;;;;;5015707;28;20064;-78
2023/08/30 00:10:12;;;;;;;17.67;15.85;;;;;;;;;;5014889;28;20053;-77
2023/08/30 00:12:41;;;;;;;17.92;16.13;;;;;;;;;;5014461;28;20052;-78
2023/08/30 00:15:07;;;;;;;17.83;15.60;;;;;;;;;;5018816;28;20454;-78
2023/08/30 00:17:33;;;;;;;17.60;15.80;;;;;;;;;;5002650;28;20045;-78
2023/08/30 00:19:59;;;;;;;18.23;16.20;;;;;;;;;;5018177;28;20056;-79
2023/08/30 00:22:27;;;;;;;17.98;16.23;;;;;;;;;;5034672;28;20050;-79
2023/08/30 00:24:53;;;;;;;18.30;16.50;;;;;;;;;;5035789;28;20048;-78
2023/08/30 00:27:22;;;;;;;17.98;16.10;;;;;;;;;;5018411;28;20037;-78
2023/08/30 00:29:48;;;;;;;18.15;16.38;;;;;;;;;;5035789;28;20458;-78
2023/08/30 00:32:15;;;;;;;17.30;15.68;;;;;;;;;;5015970;28;20049;-78
2023/08/30 00:34:41;;;;;;;18.27;16.08;;;;;;;;;;5014059;28;20077;-78
2023/08/30 00:37:08;;;;;;;17.73;16.00;;;;;;;;;;5026382;28;20132;-79
2023/08/30 00:39:35;;;;;;;17.25;15.45;;;;;;;;;;5018079;28;20045;-78
2023/08/30 00:42:04;;;;;;;17.58;15.88;;;;;;;;;;5014970;28;20041;-78
2023/08/30 00:44:31;;;;;;;17.83;16.02;;;;;;;;;;5015949;28;20096;-80
2023/08/30 00:46:57;;;;;;;18.33;16.30;;;;;;;;;;5024488;28;20116;-79
2023/08/30 00:49:23;;;;;;;17.05;15.25;;;;;;;;;;5035339;28;20042;-79
2023/08/30 00:51:49;;;;;;;18.00;16.33;;;;;;;;;;5017263;28;20098;-78
2023/08/30 00:54:16;;;;;;;19.23;16.13;;;;;;;;;;5017951;28;20147;-79
2023/08/30 00:56:42;;;;;;;18.20;16.40;;;;;;;;;;5001535;28;20053;-78
2023/08/30 00:59:08;;;;;;;17.33;15.48;;;;;;;;;;5035417;28;20077;-79
2023/08/30 01:01:35;;;;;;;16.08;14.38;;;;;;;;;;5017843;28;20084;-79
2023/08/30 01:04:01;;;;;;;16.02;14.30;;;;;;;;;;5035124;28;20096;-79
2023/08/30 01:06:27;;;;;;;14.75;13.02;;;;;;;;;;5017696;28;20057;-79
2023/08/30 01:08:53;;;;;;;14.98;13.43;;;;;;;;;;5035481;28;20038;-79
2023/08/30 01:11:20;;;;;;;15.05;12.90;;;;;;;;;;5035387;28;20037;-79
2023/08/30 01:13:50;;;;;;;15.20;13.60;;;;;;;;;;5000682;28;20056;-79
2023/08/30 01:16:20;;;;;;;16.35;12.98;;;;;;;;;;5016985;28;20129;-79
2023/08/30 01:18:47;;;;;;;15.07;13.25;;;;;;;;;;5016733;28;20049;-79
2023/08/30 01:21:22;;;;;;;14.40;12.90;;;;;;;;;;5001382;28;20540;-78
2023/08/30 01:23:50;;;;;;;15.50;13.43;;;;;;;;;;5034282;28;20048;-79
2023/08/30 01:26:29;;;;;;;14.75;12.95;;;;;;;;;;5016434;28;20048;-79
2023/08/30 01:28:56;;;;;;;14.02;12.52;;;;;;;;;;5010974;28;20368;-79
2023/08/30 01:31:23;;;;;;;14.13;12.63;;;;;;;;;;5034227;28;20041;-79
2023/08/30 01:33:49;;;;;;;15.02;13.52;;;;;;;;;;5032310;28;20091;-79
2023/08/30 01:36:16;;;;;;;15.00;13.35;;;;;;;;;;5034710;28;20405;-78
2023/08/30 01:38:43;;;;;;;14.70;13.15;;;;;;;;;;5034235;28;20043;-79
2023/08/30 01:41:09;;;;;;;15.77;12.77;;;;;;;;;;5034664;28;20041;-78
2023/08/30 01:43:36;;;;;;;14.27;12.55;;;;;;;;;;5034199;28;20445;-79
2023/08/30 01:46:04;;;;;;;14.00;12.60;;;;;;;;;;5033781;28;20045;-79
2023/08/30 01:48:33;;;;;;;14.10;12.60;;;;;;;;;;5033966;28;20172;-79
2023/08/30 01:51:00;;;;;;;13.68;12.02;;;;;;;;;;5017240;28;20473;-79
2023/08/30 01:53:26;;;;;;;14.27;12.77;;;;;;;;;;5033526;28;20049;-79
2023/08/30 01:55:52;;;;;;;13.90;12.23;;;;;;;;;;5016868;28;20038;-79
2023/08/30 01:58:20;;;;;;;15.18;12.95;;;;;;;;;;5016464;28;20410;-79
2023/08/30 02:00:46;;;;;;;12.55;11.25;;;;;;;;;;5016388;28;20079;-79
2023/08/30 02:03:12;;;;;;;13.25;11.90;;;;;;;;;;5013842;28;20125;-79
2023/08/30 02:05:52;;;;;;;15.73;12.30;;;;;;;;;;5033774;28;20056;-79
2023/08/30 02:08:20;;;;;;;14.20;12.70;;;;;;;;;;5018987;28;20069;-78
2023/08/30 02:10:50;;;;;;;13.65;11.90;;;;;;;;;;5018235;28;20037;-79
2023/08/30 02:13:16;;;;;;;12.90;11.50;;;;;;;;;;5035022;28;20052;-79
2023/08/30 02:15:43;;;;;;;13.00;10.98;;;;;;;;;;5016276;28;20072;-78
2023/08/30 02:18:10;;;;;;;12.82;11.32;;;;;;;;;;5033685;28;20049;-78
2023/08/30 02:20:36;;;;;;;13.18;11.80;;;;;;;;;;5034250;28;20176;-78
2023/08/30 02:23:02;;;;;;;12.68;11.38;;;;;;;;;;5015587;28;20041;-78
2023/08/30 02:25:29;;;;;;;13.30;11.50;;;;;;;;;;5000347;28;20042;-78
2023/08/30 02:27:55;;;;;;;13.38;11.98;;;;;;;;;;4999337;28;20042;-78
2023/08/30 02:30:21;;;;;;;14.13;11.27;;;;;;;;;;5033829;28;20052;-78
2023/08/30 02:32:47;;;;;;;14.50;12.68;;;;;;;;;;5025069;28;20042;-78
2023/08/30 02:35:14;;;;;;;14.65;11.90;;;;;;;;;;5015497;28;20091;-77
2023/08/30 02:37:41;;;;;;;15.15;12.20;;;;;;;;;;5010960;28;20054;-79
2023/08/30 02:40:08;;;;;;;12.93;11.57;;;;;;;;;;5033636;28;20050;-79
2023/08/30 02:42:34;;;;;;;13.88;12.07;;;;;;;;;;5033075;28;20354;-78
2023/08/30 02:45:00;;;;;;;13.95;11.55;;;;;;;;;;4998750;28;20195;-78
2023/08/30 02:47:26;;;;;;;14.45;11.82;;;;;;;;;;5031596;28;20068;-77
2023/08/30 02:49:52;;;;;;;13.27;11.88;;;;;;;;;;5031816;28;20354;-78
2023/08/30 02:52:18;;;;;;;12.52;11.23;;;;;;;;;;5014774;28;20560;-78
2023/08/30 02:54:44;;;;;;;14.65;11.32;;;;;;;;;;5014959;28;20144;-78
2023/08/30 02:57:10;;;;;;;13.60;11.30;;;;;;;;;;5015677;28;20454;-78
2023/08/30 02:59:36;;;;;;;12.82;11.38;;;;;;;;;;5032782;28;20049;-78
2023/08/30 03:02:03;;;;;;;14.07;11.65;;;;;;;;;;4998435;28;20042;-78
2023/08/30 03:04:29;;;;;;;14.48;12.00;;;;;;;;;;5013889;28;20430;-79
2023/08/30 03:06:58;;;;;;;12.75;11.45;;;;;;;;;;5015063;28;20124;-78
2023/08/30 03:09:24;;;;;;;13.80;12.10;;;;;;;;;;5032770;28;20466;-78
2023/08/30 03:11:50;;;;;;;12.38;10.85;;;;;;;;;;5015152;28;20131;-79
2023/08/30 03:14:16;;;;;;;13.43;12.02;;;;;;;;;;5032382;28;20045;-77
2023/08/30 03:16:45;;;;;;;13.38;12.02;;;;;;;;;;5032502;28;20087;-79
2023/08/30 03:19:11;;;;;;;14.52;12.25;;;;;;;;;;5014213;28;20128;-78
2023/08/30 03:21:37;;;;;;;12.93;11.52;;;;;;;;;;5015089;28;20041;-78
2023/08/30 03:24:03;;;;;;;13.15;11.50;;;;;;;;;;5032635;28;20037;-78
2023/08/30 03:26:29;;;;;;;16.55;12.23;;;;;;;;;;5015048;28;20045;-78
2023/08/30 03:28:55;;;;;;;15.00;13.05;;;;;;;;;;5015194;28;20045;-77
2023/08/30 03:31:22;;;;;;;13.45;12.00;;;;;;;;;;5017572;28;20041;-77
2023/08/30 03:33:48;;;;;;;14.32;12.82;;;;;;;;;;5039750;28;20132;-76
2023/08/30 03:36:16;;;;;;;14.55;12.75;;;;;;;;;;5035014;28;20080;-78
2023/08/30 03:38:43;;;;;;;14.95;13.48;;;;;;;;;;5014767;28;20401;-78
2023/08/30 03:41:09;;;;;;;14.73;12.55;;;;;;;;;;4998941;28;20041;-79
2023/08/30 03:43:35;;;;;;;15.52;13.45;;;;;;;;;;5026937;28;20124;-78
2023/08/30 03:46:02;;;;;;;15.80;13.93;;;;;;;;;;4998989;28;20128;-78
2023/08/30 03:48:29;;;;;;;16.50;13.85;;;;;;;;;;5014116;28;20111;-78
2023/08/30 03:50:55;;;;;;;15.50;13.75;;;;;;;;;;4998214;28;20049;-77
2023/08/30 03:53:22;;;;;;;15.23;13.63;;;;;;;;;;5014446;28;20439;-78
2023/08/30 03:55:48;;;;;;;17.08;14.30;;;;;;;;;;5014608;28;20100;-78
2023/08/30 03:58:14;;;;;;;16.52;14.07;;;;;;;;;;5032564;28;20061;-77
2023/08/30 04:00:43;;;;;;;17.42;14.45;;;;;;;;;;5032974;28;20399;-78
2023/08/30 04:03:10;;;;;;;17.00;13.27;;;;;;;;;;4997966;28;20053;-78
2023/08/30 04:05:39;;;;;;;15.60;13.95;;;;;;;;;;5015225;28;20045;-78
2023/08/30 04:08:06;;;;;;;19.10;13.45;;;;;;;;;;4998391;28;20061;-77
2023/08/30 04:10:39;;;;;;;16.17;14.00;;;;;;;;;;5032006;28;20390;-77
2023/08/30 04:13:05;;;;;;;15.63;13.82;;;;;;;;;;4997470;28;20045;-77
2023/08/30 04:15:35;;;;;;;17.63;14.25;;;;;;;;;;5014664;28;20037;-78
2023/08/30 04:18:01;;;;;;;16.15;13.25;;;;;;;;;;4998180;28;20053;-78
2023/08/30 04:20:28;;;;;;;16.65;13.98;;;;;;;;;;5014555;28;20051;-78
2023/08/30 04:22:55;;;;;;;16.60;13.63;;;;;;;;;;5032418;28;20042;-78
2023/08/30 04:25:21;;;;;;;15.75;13.35;;;;;;;;;;5031890;28;20401;-78
2023/08/30 04:27:48;;;;;;;14.95;13.23;;;;;;;;;;5022699;28;20061;-79
2023/08/30 04:30:14;;;;;;;15.02;13.43;;;;;;;;;;5031891;28;20049;-77
2023/08/30 04:32:40;;;;;;;14.15;12.70;;;;;;;;;;5014166;28;20136;-78
2023/08/30 04:35:06;;;;;;;14.50;12.90;;;;;;;;;;5013984;28;20370;-77
2023/08/30 04:37:32;;;;;;;14.68;13.10;;;;;;;;;;5031465;28;20049;-78
2023/08/30 04:39:58;;;;;;;15.82;12.32;;;;;;;;;;4997590;28;20076;-78
2023/08/30 04:42:24;;;;;;;13.90;12.45;;;;;;;;;;5029741;28;20046;-78
2023/08/30 04:44:52;;;;;;;14.18;12.27;;;;;;;;;;5013550;28;20037;-77
2023/08/30 04:47:18;;;;;;;14.75;12.07;;;;;;;;;;5014478;28;20076;-78
2023/08/30 04:49:44;;;;;;;13.80;12.10;;;;;;;;;;5030840;28;20128;-78
2023/08/30 04:52:10;;;;;;;14.82;12.48;;;;;;;;;;5024514;28;20467;-78
2023/08/30 04:54:36;;;;;;;15.23;12.15;;;;;;;;;;4997649;28;20398;-78
2023/08/30 04:57:02;;;;;;;14.55;12.00;;;;;;;;;;5013687;28;20115;-78
2023/08/30 04:59:28;;;;;;;14.30;12.18;;;;;;;;;;5014917;28;20081;-78
2023/08/30 05:01:54;;;;;;;14.10;12.05;;;;;;;;;;5017358;28;20049;-78
2023/08/30 05:04:21;;;;;;;14.00;12.52;;;;;;;;;;5017083;28;20111;-78
2023/08/30 05:06:47;;;;;;;12.90;11.15;;;;;;;;;;5017567;28;20053;-78
2023/08/30 05:09:13;;;;;;;16.20;12.48;;;;;;;;;;5034927;28;20037;-78
2023/08/30 05:11:39;;;;;;;14.90;11.70;;;;;;;;;;5017420;28;20103;-79
2023/08/30 05:14:05;;;;;;;14.15;12.65;;;;;;;;;;5034971;28;20049;-78
2023/08/30 05:16:31;;;;;;;14.38;12.60;;;;;;;;;;5018545;28;20084;-78
2023/08/30 05:18:58;;;;;;;13.55;12.00;;;;;;;;;;5018029;28;20041;-77
2023/08/30 05:21:24;;;;;;;15.05;12.18;;;;;;;;;;5017528;28;20376;-77
2023/08/30 05:23:50;;;;;;;14.38;11.60;;;;;;;;;;5033813;28;20077;-78
2023/08/30 05:26:19;;;;;;;15.68;11.10;;;;;;;;;;5016993;28;20401;-78
2023/08/30 05:28:45;;;;;;;16.88;11.70;;;;;;;;;;4999844;28;20045;-79
2023/08/30 05:31:11;;;;;;;12.52;11.18;;;;;;;;;;5000616;28;20041;-79
2023/08/30 05:33:37;;;;;;;14.52;11.27;;;;;;;;;;5016388;28;20049;-79
2023/08/30 05:36:03;;;;;;;15.95;11.25;;;;;;;;;;5015768;28;20041;-79
2023/08/30 05:38:29;;;;;;;13.88;11.45;;;;;;;;;;5014436;28;20450;-78
2023/08/30 05:40:56;;;;;;;15.40;11.75;;;;;;;;;;5034598;28;20064;-79
2023/08/30 05:43:22;;;;;;;16.20;11.80;;;;;;;;;;5034126;28;20052;-79
2023/08/30 05:45:48;;;;;;;12.93;11.35;;;;;;;;;;5016891;28;20050;-79
2023/08/30 05:48:14;;;;;;;14.00;11.55;;;;;;;;;;5033991;28;20121;-79
2023/08/30 05:50:40;;;;;;;14.70;11.90;;;;;;;;;;5033382;28;20045;-79
2023/08/30 05:53:06;;;;;;;14.23;12.05;;;;;;;;;;5033451;28;20045;-79
2023/08/30 05:55:32;;;;;;;14.52;11.70;;;;;;;;;;5032591;28;20045;-78
2023/08/30 05:57:58;;;;;;;13.52;12.15;;;;;;;;;;5016841;28;20049;-79
2023/08/30 06:00:25;;;;;;;13.70;11.48;;;;;;;;;;5034417;28;20072;-77
2023/08/30 06:02:52;;;;;;;14.80;12.00;;;;;;;;;;5016335;28;20053;-78
2023/08/30 06:05:18;;;;;;;14.90;11.85;;;;;;;;;;5033932;28;20257;-78
2023/08/30 06:07:44;;;;;;;13.00;11.35;;;;;;;;;;5033836;28;20379;-80
2023/08/30 06:10:11;;;;;;;13.23;11.07;;;;;;;;;;5016059;28;20107;-79
2023/08/30 06:12:37;;;;;;;13.95;11.85;;;;;;;;;;5033248;28;20049;-78
2023/08/30 06:15:03;;;;;;;13.60;11.88;;;;;;;;;;5015941;28;20049;-78
2023/08/30 06:17:29;;;;;;;13.27;11.20;;;;;;;;;;5015874;28;20210;-78
2023/08/30 06:19:56;;;;;;;13.50;11.52;;;;;;;;;;5033185;28;20053;-79
2023/08/30 06:22:22;;;;;;;16.48;11.45;;;;;;;;;;5016065;28;20041;-79
2023/08/30 06:24:48;;;;;;;14.82;11.60;;;;;;;;;;5031668;28;20100;-79
2023/08/30 06:27:14;;;;;;;14.23;10.60;;;;;;;;;;5033569;28;20053;-79
2023/08/30 06:29:40;;;;;;;13.85;11.90;;;;;;;;;;5032388;28;20080;-79
2023/08/30 06:32:07;;;;;;;15.15;11.52;;;;;;;;;;5014237;28;20057;-79
2023/08/30 06:34:33;;;;;;;11.98;10.75;;;;;;;;;;4997776;28;20041;-78
2023/08/30 06:36:59;;;;;;;13.18;10.68;;;;;;;;;;5015150;28;20512;-78
2023/08/30 06:39:25;;;;;;;16.90;11.25;;;;;;;;;;5015833;28;20041;-78
2023/08/30 06:41:51;;;;;;;12.45;11.10;;;;;;;;;;4999557;28;20467;-78
2023/08/30 06:44:17;;;;;;;13.75;10.95;;;;;;;;;;5015429;28;20044;-78
2023/08/30 06:46:43;;;;;;;12.68;11.07;;;;;;;;;;5014934;28;20115;-79
2023/08/30 06:49:09;;;;;;;12.82;10.35;;;;;;;;;;4999104;28;20049;-78
2023/08/30 06:51:36;;;;;;;13.27;10.32;;;;;;;;;;5016009;28;20046;-79
2023/08/30 06:54:02;;;;;;;12.77;10.65;;;;;;;;;;5018305;28;20050;-75
2023/08/30 06:56:28;;;;;;;12.82;10.55;;;;;;;;;;5006311;28;20037;-76
2023/08/30 06:58:54;;;;;;;13.30;10.70;;;;;;;;;;5018060;28;20038;-77
2023/08/30 07:01:20;;;;;;;13.10;10.30;;;;;;;;;;5016325;28;20053;-78
2023/08/30 07:03:46;;;;;;;13.93;10.48;;;;;;;;;;5015185;28;20053;-78
2023/08/30 07:06:13;;;;;;;12.60;10.20;;;;;;;;;;5015384;28;20091;-78
2023/08/30 07:08:39;;;;;;;13.65;9.98;;;;;;;;;;5032873;28;20150;-78
2023/08/30 07:11:05;;;;;;;14.60;10.32;;;;;;;;;;5015553;28;20041;-79
2023/08/30 07:13:31;;;;;;;12.40;9.88;;;;;;;;;;5015072;28;20084;-79
2023/08/30 07:15:57;;;;;;;14.10;10.00;;;;;;;;;;5015559;28;20064;-78
2023/08/30 07:18:24;;;;;;;15.20;9.88;;;;;;;;;;5014460;28;20045;-79
2023/08/30 07:20:50;;;;;;;13.32;9.88;;;;;;;;;;5033634;28;20165;-79
2023/08/30 07:23:16;;;;;;;12.85;9.88;;;;;;;;;;5032354;28;20037;-78
2023/08/30 07:25:42;;;;;;;13.25;9.75;;;;;;;;;;5015589;28;20128;-78
2023/08/30 07:28:08;;;;;;;12.63;10.05;;;;;;;;;;5016893;28;20451;-79
2023/08/30 07:30:37;;;;;;;11.68;9.73;;;;;;;;;;5013709;28;20041;-78
2023/08/30 07:33:04;;;;;;;12.00;9.27;;;;;;;;;;4995866;28;20467;-78
2023/08/30 07:35:31;;;;;;;12.82;9.38;;;;;;;;;;5013403;28;20042;-77
2023/08/30 07:37:57;;;;;;;13.68;9.90;;;;;;;;;;5007249;28;20088;-79
2023/08/30 07:40:26;;;;;;;12.73;9.43;;;;;;;;;;4998673;28;20049;-79
2023/08/30 07:42:52;;;;;;;14.85;9.98;;;;;;;;;;4978933;28;20054;-78
2023/08/30 07:45:19;;;;;;;12.00;9.00;;;;;;;;;;5012989;28;20181;-78
2023/08/30 07:47:45;;;;;;;13.07;8.73;;;;;;;;;;4979574;28;20421;-78
2023/08/30 07:50:11;;;;;;;10.88;8.85;;;;;;;;;;5012830;28;20046;-78
2023/08/30 07:52:37;;;;;;;12.65;8.98;;;;;;;;;;5024652;28;20045;-78
2023/08/30 07:55:03;;;;;;;11.75;7.82;;;;;;;;;;4998178;28;20076;-78
2023/08/30 07:57:29;;;;;;;11.93;8.02;;;;;;;;;;5032494;28;20091;-79
2023/08/30 07:59:56;;;;;;;10.75;8.40;;;;;;;;;;5032632;28;20379;-78
2023/08/30 08:02:22;;;;;;;13.48;8.60;;;;;;;;;;5014742;28;20095;-78
2023/08/30 08:04:49;;;;;;;11.07;7.72;;;;;;;;;;5031425;28;20049;-79
2023/08/30 08:07:16;;;;;;;10.80;7.72;;;;;;;;;;5014960;28;20121;-80
2023/08/30 08:09:42;;;;;;;10.68;8.02;;;;;;;;;;5014285;28;20103;-81
2023/08/30 08:12:08;;;;;;;10.57;7.63;;;;;;;;;;5031954;28;20069;-80
2023/08/30 08:14:34;;;;;;;11.25;7.82;;;;;;;;;;5031747;28;20128;-79
2023/08/30 08:17:00;;;;;;;11.43;7.95;;;;;;;;;;5032294;28;20095;-80
2023/08/30 08:19:26;;;;;;;12.25;7.70;;;;;;;;;;5032065;28;20038;-79
2023/08/30 08:21:54;;;;;;;11.38;7.80;;;;;;;;;;5014233;28;20141;-80
2023/08/30 08:24:20;;;;;;;12.80;8.38;;;;;;;;;;5015719;28;20060;-79
2023/08/30 08:26:47;;;;;;;13.18;9.85;;;;;;;;;;5015581;28;20494;-79
2023/08/30 08:29:14;;;;;;;10.90;8.45;;;;;;;;;;5032461;28;20491;-80
2023/08/30 08:31:40;;;;;;;11.63;8.32;;;;;;;;;;5014902;28;20054;-80
2023/08/30 08:34:13;;;;;;;11.70;8.52;;;;;;;;;;5014628;28;20121;-79
2023/08/30 08:36:40;;;;;;;12.68;8.98;;;;;;;;;;5017054;28;20217;-79
2023/08/30 08:39:06;;;;;;;11.85;8.70;;;;;;;;;;5033531;28;20457;-80
2023/08/30 08:41:36;;;;;;;11.32;8.70;;;;;;;;;;5035897;28;20041;-79
2023/08/30 08:44:04;;;;;;;13.88;9.50;;;;;;;;;;5018015;28;20056;-78
2023/08/30 08:46:31;;;;;;;11.88;8.40;;;;;;;;;;5002090;28;20045;-79
2023/08/30 08:48:57;;;;;;;11.30;8.80;;;;;;;;;;5017661;28;20052;-79
2023/08/30 08:51:24;;;;;;;12.73;9.13;;;;;;;;;;5018241;28;20049;-80
2023/08/30 08:53:51;;;;;;;11.77;8.60;;;;;;;;;;5035097;28;20049;-79
2023/08/30 08:56:18;;;;;;;13.35;8.80;;;;;;;;;;5036074;28;20037;-79
2023/08/30 08:58:44;;;;;;;13.05;8.90;;;;;;;;;;5035677;28;20107;-79
2023/08/30 09:01:12;;;;;;;10.82;8.38;;;;;;;;;;5018171;28;20477;-80
2023/08/30 09:03:39;;;;;;;12.68;8.35;;;;;;;;;;4997021;28;20046;-79
2023/08/30 09:06:05;;;;;;;11.40;8.43;;;;;;;;;;4998630;28;20057;-81
2023/08/30 09:08:31;;;;;;;11.90;8.25;;;;;;;;;;5015979;28;20106;-80
2023/08/30 09:10:57;;;;;;;10.75;8.15;;;;;;;;;;4980503;28;20044;-79
2023/08/30 09:13:24;;;;;;;11.90;8.15;;;;;;;;;;4998820;28;20072;-80
2023/08/30 09:15:50;;;;;;;11.38;8.13;;;;;;;;;;4984811;28;20537;-79
2023/08/30 09:18:19;;;;;;;11.90;8.25;;;;;;;;;;5014450;28;20048;-80
2023/08/30 09:20:45;;;;;;;10.60;8.27;;;;;;;;;;4997580;28;20042;-80
2023/08/30 09:23:21;;;;;;;11.68;8.35;;;;;;;;;;5015344;28;20244;-79
2023/08/30 09:25:47;;;;;;;10.95;8.00;;;;;;;;;;4995456;28;20042;-79
2023/08/30 09:28:14;;;;;;;10.90;7.97;;;;;;;;;;5014414;28;20056;-79
2023/08/30 09:30:40;;;;;;;15.02;9.10;;;;;;;;;;4997095;28;20054;-78
2023/08/30 09:33:06;;;;;;;9.45;7.47;;;;;;;;;;4996736;28;20071;-79
2023/08/30 09:35:32;;;;;;;10.77;7.78;;;;;;;;;;4995125;28;20122;-79
2023/08/30 09:37:58;;;;;;;9.95;7.93;;;;;;;;;;4996196;28;20050;-79
2023/08/30 09:40:25;;;;;;;9.63;7.40;;;;;;;;;;4997139;28;20046;-79
2023/08/30 09:42:51;;;;;;;11.70;7.63;;;;;;;;;;5014970;28;20045;-79
2023/08/30 09:45:22;;;;;;;10.48;7.68;;;;;;;;;;5014212;28;20080;-80
2023/08/30 09:47:49;;;;;;;13.18;7.38;;;;;;;;;;5014652;28;20050;-79
2023/08/30 09:50:19;;;;;;;10.23;7.50;;;;;;;;;;5014595;28;20125;-79
2023/08/30 09:52:49;;;;;;;9.82;8.05;;;;;;;;;;5013339;28;20037;-80
2023/08/30 09:55:15;;;;;;;10.77;7.45;;;;;;;;;;5014311;28;20048;-78
2023/08/30 09:57:45;;;;;;;10.60;7.85;;;;;;;;;;5014004;28;20128;-78
2023/08/30 10:00:14;;;;;;;12.63;7.90;;;;;;;;;;5012125;28;20114;-79
2023/08/30 10:02:44;;;;;;;10.85;8.20;;;;;;;;;;5014441;28;20494;-79
2023/08/30 10:05:12;;;;;;;11.73;7.78;;;;;;;;;;5030980;28;20466;-79
2023/08/30 10:07:39;;;;;;;11.60;7.53;;;;;;;;;;5034138;28;20057;-79
2023/08/30 10:10:05;;;;;;;10.10;7.65;;;;;;;;;;5015015;28;20132;-78
2023/08/30 10:12:33;;;;;;;10.88;7.80;;;;;;;;;;5015709;28;20045;-79
2023/08/30 10:14:59;;;;;;;10.48;6.60;;;;;;;;;;5016900;28;20048;-78
2023/08/30 10:17:31;;;;;;;10.18;6.90;;;;;;;;;;5043693;28;20037;-76
2023/08/30 10:19:57;;;;;;;8.93;6.95;;;;;;;;;;5023881;28;20068;-76
2023/08/30 10:22:24;;;;;;;9.55;6.97;;;;;;;;;;5015042;28;20124;-78
2023/08/30 10:24:50;;;;;;;8.90;7.13;;;;;;;;;;5014944;28;20044;-78
2023/08/30 10:27:17;;;;;;;10.10;7.60;;;;;;;;;;5033864;28;20102;-79
2023/08/30 10:29:44;;;;;;;11.70;7.78;;;;;;;;;;5016317;28;20057;-80
2023/08/30 10:32:10;;;;;;;11.05;7.47;;;;;;;;;;5014294;28;20049;-78
2023/08/30 10:34:37;;;;;;;10.77;7.90;;;;;;;;;;4995835;28;20080;-79
2023/08/30 10:37:06;;;;;;;10.70;7.57;;;;;;;;;;5027706;28;20046;-79
2023/08/30 10:39:36;;;;;;;11.00;6.85;;;;;;;;;;5017516;28;20053;-79
2023/08/30 10:42:08;;;;;;;9.45;7.13;;;;;;;;;;5013203;28;20041;-79
2023/08/30 10:44:34;;;;;;;9.85;7.07;;;;;;;;;;5012953;28;20049;-80
2023/08/30 10:47:04;;;;;;;9.50;6.95;;;;;;;;;;5010823;28;20045;-79
2023/08/30 10:49:30;;;;;;;11.02;7.35;;;;;;;;;;5021325;28;20572;-78
2023/08/30 10:51:57;;;;;;;10.63;8.30;;;;;;;;;;5002323;28;20045;-78
2023/08/30 10:54:24;;;;;;;11.43;8.10;;;;;;;;;;5001225;28;20414;-78
2023/08/30 10:56:59;;;;;;;11.82;7.85;;;;;;;;;;5018430;28;20038;-79
2023/08/30 10:59:25;;;;;;;9.43;7.30;;;;;;;;;;5021448;28;20045;-79
2023/08/30 11:01:52;;;;;;;9.57;7.38;;;;;;;;;;5018615;28;20380;-78
2023/08/30 11:04:19;;;;;;;8.18;6.43;;;;;;;;;;5002057;28;20417;-78
2023/08/30 11:06:46;;;;;;;8.27;6.60;;;;;;;;;;5020691;28;20136;-77
2023/08/30 11:09:17;;;;;;;8.32;5.97;;;;;;;;;;5021510;28;20095;-78
2023/08/30 11:11:44;;;;;;;10.00;5.90;;;;;;;;;;5004143;28;20038;-78
2023/08/30 11:14:10;;;;;;;9.20;6.00;;;;;;;;;;5018181;28;20046;-78
2023/08/30 11:16:37;;;;;;;13.05;6.13;;;;;;;;;;5022891;28;20080;-79
2023/08/30 11:19:07;;;;;;;8.10;5.70;;;;;;;;;;5020064;28;20474;-78
2023/08/30 11:21:34;;;;;;;7.03;5.10;;;;;;;;;;5026298;28;20037;-79
2023/08/30 11:24:00;;;;;;;7.82;5.13;;;;;;;;;;5010105;28;20053;-79
2023/08/30 11:26:27;;;;;;;7.57;4.63;;;;;;;;;;5010124;28;20045;-80
2023/08/30 11:28:53;;;;;;;11.15;5.70;;;;;;;;;;5012369;28;20096;-78
2023/08/30 11:31:22;;;;;;;9.18;5.55;;;;;;;;;;5013410;28;20037;-78
2023/08/30 11:33:56;;;;;;;7.75;5.78;;;;;;;;;;5009793;28;20494;-77
2023/08/30 11:36:23;;;;;;;8.15;5.57;;;;;;;;;;5033067;28;20048;-77
2023/08/30 11:38:52;;;;;;;8.55;5.78;;;;;;;;;;5032463;28;20045;-76
2023/08/30 11:41:18;;;;;;;8.25;5.72;;;;;;;;;;5032315;28;20112;-77
2023/08/30 11:43:45;;;;;;;7.18;5.05;;;;;;;;;;5014779;28;20079;-77
2023/08/30 11:46:12;;;;;;;7.93;5.30;;;;;;;;;;5026096;28;20083;-77
2023/08/30 11:48:39;;;;;;;9.00;5.15;;;;;;;;;;5009494;28;20042;-77
2023/08/30 11:51:08;;;;;;;8.48;5.05;;;;;;;;;;5030657;28;20387;-77
2023/08/30 11:53:35;;;;;;;10.60;4.85;;;;;;;;;;5011259;28;20048;-77
2023/08/30 11:56:01;;;;;;;6.72;4.45;;;;;;;;;;5013271;28;20521;-77
2023/08/30 11:58:27;;;;;;;7.10;4.57;;;;;;;;;;5004889;28;20172;-78
2023/08/30 12:00:54;;;;;;;6.28;4.50;;;;;;;;;;5008234;28;20045;-77
2023/08/30 12:03:21;;;;;;;6.97;4.38;;;;;;;;;;5011643;28;20045;-78
2023/08/30 12:05:51;;;;;;;7.43;5.03;;;;;;;;;;5013000;28;20501;-77
2023/08/30 12:08:26;;;;;;;6.45;5.22;;;;;;;;;;5030517;28;20065;-77
2023/08/30 12:10:53;;;;;;;6.95;4.63;;;;;;;;;;5016531;28;20214;-78
2023/08/30 12:13:22;;;;;;;6.53;4.70;;;;;;;;;;5034649;28;20049;-78
2023/08/30 12:15:48;;;;;;;8.93;5.38;;;;;;;;;;5034922;28;20081;-77
2023/08/30 12:18:14;;;;;;;10.80;5.30;;;;;;;;;;5034369;28;20041;-76
2023/08/30 12:20:40;;;;;;;7.30;5.20;;;;;;;;;;5017013;28;20050;-76
2023/08/30 12:23:07;;;;;;;9.02;5.78;;;;;;;;;;5016568;28;20060;-78
2023/08/30 12:25:33;;;;;;;9.65;5.95;;;;;;;;;;5016409;28;20041;-77
2023/08/30 12:27:59;;;;;;;7.10;5.55;;;;;;;;;;5019652;28;20060;-77
2023/08/30 12:30:25;;;;;;;8.57;5.72;;;;;;;;;;4996475;28;20084;-78
2023/08/30 12:33:02;;;;;;;9.27;6.50;;;;;;;;;;4979248;28;20096;-78
2023/08/30 12:35:28;;;;;;;11.27;6.95;;;;;;;;;;4980794;28;20041;-77
2023/08/30 12:37:55;;;;;;;9.13;7.97;;;;;;;;;;5014103;28;20104;-77
2023/08/30 12:40:21;;;;;;;9.88;8.20;;;;;;;;;;5014251;28;20328;-78
2023/08/30 12:42:47;;;;;;;11.80;8.68;;;;;;;;;;4996912;28;20129;-78
2023/08/30 12:45:13;;;;;;;11.48;8.80;;;;;;;;;;5012511;28;20045;-79
2023/08/30 12:47:39;;;;;;;11.57;9.32;;;;;;;;;;5017170;28;20084;-78
2023/08/30 12:50:07;;;;;;;12.55;9.43;;;;;;;;;;5017816;28;20105;-76
2023/08/30 12:52:33;;;;;;;11.50;9.88;;;;;;;;;;5032966;28;20120;-77
2023/08/30 12:54:59;;;;;;;12.48;9.98;;;;;;;;;;5000700;28;20045;-77
2023/08/30 12:57:26;;;;;;;12.50;9.70;;;;;;;;;;5000969;28;20045;-78
2023/08/30 12:59:52;;;;;;;11.68;9.98;;;;;;;;;;5017748;28;20133;-78
2023/08/30 13:02:18;;;;;;;12.50;9.18;;;;;;;;;;5035373;28;20041;-78
2023/08/30 13:04:44;;;;;;;11.43;10.10;;;;;;;;;;5016647;28;20494;-78
2023/08/30 13:07:10;;;;;;;12.45;11.10;;;;;;;;;;5035089;28;20045;-78
2023/08/30 13:09:36;;;;;;;12.23;10.20;;;;;;;;;;5035172;28;20049;-78
2023/08/30 13:12:02;;;;;;;14.10;11.75;;;;;;;;;;5034241;28;20041;-78
2023/08/30 13:14:28;;;;;;;13.75;11.65;;;;;;;;;;5034863;28;20055;-77
2023/08/30 13:16:54;;;;;;;13.63;11.32;;;;;;;;;;5017494;28;20041;-78
2023/08/30 13:19:20;;;;;;;14.80;11.63;;;;;;;;;;5016884;28;20118;-78
2023/08/30 13:21:47;;;;;;;13.65;11.65;;;;;;;;;;5017113;28;20140;-78
2023/08/30 13:24:13;;;;;;;13.43;11.88;;;;;;;;;;5034542;28;20049;-77
2023/08/30 13:26:39;;;;;;;14.20;11.98;;;;;;;;;;5013238;28;20108;-78
2023/08/30 13:29:05;;;;;;;14.25;12.18;;;;;;;;;;4997451;28;20042;-78
2023/08/30 13:31:31;;;;;;;14.15;11.73;;;;;;;;;;5029118;28;20052;-77
2023/08/30 13:33:58;;;;;;;13.55;11.45;;;;;;;;;;5037305;28;20038;-77
2023/08/30 13:36:24;;;;;;;14.40;11.98;;;;;;;;;;5032821;28;20141;-77
2023/08/30 13:38:50;;;;;;;14.27;12.30;;;;;;;;;;5034042;28;20132;-77
2023/08/30 13:41:16;;;;;;;14.20;11.93;;;;;;;;;;5018204;28;20052;-77
2023/08/30 13:43:42;;;;;;;12.68;11.07;;;;;;;;;;5020562;28;20041;-76
2023/08/30 13:46:08;;;;;;;13.68;11.00;;;;;;;;;;5020518;28;20179;-78
2023/08/30 13:48:34;;;;;;;12.18;10.00;;;;;;;;;;5000378;28;20050;-78
2023/08/30 13:51:00;;;;;;;11.95;9.63;;;;;;;;;;5000696;28;20053;-78
2023/08/30 13:53:26;;;;;;;10.88;9.00;;;;;;;;;;5016373;28;20085;-78
2023/08/30 13:55:52;;;;;;;11.95;9.65;;;;;;;;;;5034733;28;20500;-78
2023/08/30 13:58:19;;;;;;;11.32;10.02;;;;;;;;;;5016268;28;20049;-78
2023/08/30 14:00:46;;;;;;;11.90;9.98;;;;;;;;;;5016078;28;20045;-78
2023/08/30 14:03:12;;;;;;;11.82;10.55;;;;;;;;;;5015677;28;20414;-78
2023/08/30 14:05:41;;;;;;;11.70;9.60;;;;;;;;;;5016226;28;20457;-77
2023/08/30 14:08:10;;;;;;;10.10;9.10;;;;;;;;;;5033811;28;20069;-77
2023/08/30 14:10:36;;;;;;;11.27;10.07;;;;;;;;;;5034358;28;20049;-77
2023/08/30 14:13:02;;;;;;;11.02;9.43;;;;;;;;;;5033032;28;20394;-77
2023/08/30 14:15:28;;;;;;;11.50;9.98;;;;;;;;;;5032819;28;20045;-77
2023/08/30 14:17:54;;;;;;;11.35;10.10;;;;;;;;;;5016051;28;20041;-77
2023/08/30 14:20:20;;;;;;;11.60;9.95;;;;;;;;;;5033954;28;20375;-77